sensor_id;sensor_type;location;lat;lon;timestamp;temperature;humidity
13673;DHT22;6909;52.202;9.876;2022-12-10T00:00:25;-0.30;99.90
13673;DHT22;6909;52.202;9.876;2022-12-10T00:02:51;-0.30;99.90
13673;DHT22;6909;52.202;9.876;2022-12-10T00:05:18;-0.40;99.90
13673;DHT22;6909;52.202;9.876;2022-12-10T00:07:46;-0.30;99.90
13673;DHT22;6909;52.202;9.876;2022-12-10T00:10:13;-0.30;99.90
13673;DHT22;6909;52.202;9.876;2022-12-10T00:12:40;-0.40;99.90
13673;DHT22;6909;52.202;9.876;2022-12-10T00:15:07;-0.30;99.90
13673;DHT22;6909;52.202;9.876;2022-12-10T00:17:34;-0.40;99.90
13673;DHT22;6909;52.202;9.876;2022-12-10T00:20:01;-0.30;99.90
13673;DHT22;6909;52.202;9.876;2022-12-10T00:22:28;-0.30;99.90
13673;DHT22;6909;52.202;9.876;2022-12-10T00:24:56;-0.30;99.90
13673;DHT22;6909;52.202;9.876;2022-12-10T00:27:22;-0.20;99.90
13673;DHT22;6909;52.202;9.876;2022-12-10T00:29:49;-0.30;99.90
13673;DHT22;6909;52.202;9.876;2022-12-10T00:32:16;-0.30;99.90
13673;DHT22;6909;52.202;9.876;2022-12-10T00:34:42;-0.30;99.90
13673;DHT22;6909;52.202;9.876;2022-12-10T00:37:09;-0.30;99.90
13673;DHT22;6909;52.202;9.876;2022-12-10T00:39:36;-0.30;99.90
13673;DHT22;6909;52.202;9.876;2022-12-10T00:42:04;-0.30;99.90
13673;DHT22;6909;52.202;9.876;2022-12-10T00:44:31;-0.40;99.90
13673;DHT22;6909;52.202;9.876;2022-12-10T00:46:58;-0.30;99.90
13673;DHT22;6909;52.202;9.876;2022-12-10T00:49:24;-0.40;99.90
13673;DHT22;6909;52.202;9.876;2022-12-10T00:51:51;-0.30;99.90
13673;DHT22;6909;52.202;9.876;2022-12-10T00:54:18;-0.40;99.90
13673;DHT22;6909;52.202;9.876;2022-12-10T00:56:44;-0.40;99.90
13673;DHT22;6909;52.202;9.876;2022-12-10T00:59:14;-0.40;99.90
13673;DHT22;6909;52.202;9.876;2022-12-10T01:01:42;-0.40;99.90
13673;DHT22;6909;52.202;9.876;2022-12-10T01:04:15;-0.40;99.90
13673;DHT22;6909;52.202;9.876;2022-12-10T01:06:43;-0.40;99.90
13673;DHT22;6909;52.202;9.876;2022-12-10T01:09:12;-0.40;99.90
13673;DHT22;6909;52.202;9.876;2022-12-10T01:11:41;-0.50;99.90
13673;DHT22;6909;52.202;9.876;2022-12-10T01:14:10;-0.50;99.90
13673;DHT22;6909;52.202;9.876;2022-12-10T01:16:39;-0.50;99.90
13673;DHT22;6909;52.202;9.876;2022-12-10T01:19:06;-0.50;99.90
13673;DHT22;6909;52.202;9.876;2022-12-10T01:21:36;-0.50;99.90
13673;DHT22;6909;52.202;9.876;2022-12-10T01:24:04;-0.50;99.90
13673;DHT22;6909;52.202;9.876;2022-12-10T01:26:32;-0.50;99.90
13673;DHT22;6909;52.202;9.876;2022-12-10T01:28:59;-0.60;99.90
13673;DHT22;6909;52.202;9.876;2022-12-10T01:31:28;-0.60;99.90
13673;DHT22;6909;52.202;9.876;2022-12-10T01:33:57;-0.50;99.90
13673;DHT22;6909;52.202;9.876;2022-12-10T01:36:25;-0.60;99.90
13673;DHT22;6909;52.202;9.876;2022-12-10T01:38:53;-0.60;99.90
13673;DHT22;6909;52.202;9.876;2022-12-10T01:41:22;-0.70;99.90
13673;DHT22;6909;52.202;9.876;2022-12-10T01:43:55;-0.70;99.90
13673;DHT22;6909;52.202;9.876;2022-12-10T01:46:24;-0.70;99.90
13673;DHT22;6909;52.202;9.876;2022-12-10T01:48:52;-0.70;99.90
13673;DHT22;6909;52.202;9.876;2022-12-10T01:51:21;-0.70;99.90
13673;DHT22;6909;52.202;9.876;2022-12-10T01:53:48;-0.80;99.90
13673;DHT22;6909;52.202;9.876;2022-12-10T01:56:16;-0.80;99.90
13673;DHT22;6909;52.202;9.876;2022-12-10T01:58:43;-0.80;99.90
13673;DHT22;6909;52.202;9.876;2022-12-10T02:01:13;-0.80;99.90
13673;DHT22;6909;52.202;9.876;2022-12-10T02:03:53;-0.90;99.90
13673;DHT22;6909;52.202;9.876;2022-12-10T02:06:31;-0.90;99.90
13673;DHT22;6909;52.202;9.876;2022-12-10T02:09:06;-0.90;99.90
13673;DHT22;6909;52.202;9.876;2022-12-10T02:11:42;-0.90;99.90
13673;DHT22;6909;52.202;9.876;2022-12-10T02:14:15;-0.90;99.90
13673;DHT22;6909;52.202;9.876;2022-12-10T02:16:47;-0.90;99.90
13673;DHT22;6909;52.202;9.876;2022-12-10T02:19:21;-0.90;99.90
13673;DHT22;6909;52.202;9.876;2022-12-10T02:21:51;-1.00;99.90
13673;DHT22;6909;52.202;9.876;2022-12-10T02:24:24;-0.90;99.90
13673;DHT22;6909;52.202;9.876;2022-12-10T02:26:58;-0.90;99.90
13673;DHT22;6909;52.202;9.876;2022-12-10T02:29:29;-0.90;99.90
13673;DHT22;6909;52.202;9.876;2022-12-10T02:31:59;-0.80;99.90
13673;DHT22;6909;52.202;9.876;2022-12-10T02:34:29;-0.90;99.90
13673;DHT22;6909;52.202;9.876;2022-12-10T02:36:58;-0.90;99.90
13673;DHT22;6909;52.202;9.876;2022-12-10T02:39:29;-0.90;99.90
13673;DHT22;6909;52.202;9.876;2022-12-10T02:41:59;-0.90;99.90
13673;DHT22;6909;52.202;9.876;2022-12-10T02:44:28;-0.90;99.90
13673;DHT22;6909;52.202;9.876;2022-12-10T02:46:57;-0.90;99.90
13673;DHT22;6909;52.202;9.876;2022-12-10T02:49:26;-0.90;99.90
13673;DHT22;6909;52.202;9.876;2022-12-10T02:51:53;-1.00;99.90
13673;DHT22;6909;52.202;9.876;2022-12-10T02:54:37;-1.00;99.90
13673;DHT22;6909;52.202;9.876;2022-12-10T02:57:16;-1.00;99.90
13673;DHT22;6909;52.202;9.876;2022-12-10T03:05:37;-1.00;99.90
13673;DHT22;6909;52.202;9.876;2022-12-10T03:08:10;-1.10;99.90
13673;DHT22;6909;52.202;9.876;2022-12-10T03:10:43;-1.00;99.90
13673;DHT22;6909;52.202;9.876;2022-12-10T03:13:14;-1.10;99.90
13673;DHT22;6909;52.202;9.876;2022-12-10T03:15:42;-1.10;99.90
13673;DHT22;6909;52.202;9.876;2022-12-10T03:18:11;-1.10;99.90
13673;DHT22;6909;52.202;9.876;2022-12-10T03:20:43;-1.10;99.90
13673;DHT22;6909;52.202;9.876;2022-12-10T03:23:16;-1.10;99.90
13673;DHT22;6909;52.202;9.876;2022-12-10T03:25:44;-1.10;99.90
13673;DHT22;6909;52.202;9.876;2022-12-10T03:28:14;-1.10;99.90
13673;DHT22;6909;52.202;9.876;2022-12-10T03:30:43;-1.10;99.90
13673;DHT22;6909;52.202;9.876;2022-12-10T03:33:10;-1.10;99.90
13673;DHT22;6909;52.202;9.876;2022-12-10T03:35:38;-1.10;99.90
13673;DHT22;6909;52.202;9.876;2022-12-10T03:38:06;-1.10;99.90
13673;DHT22;6909;52.202;9.876;2022-12-10T03:40:33;-1.10;99.90
13673;DHT22;6909;52.202;9.876;2022-12-10T03:43:00;-1.10;99.90
13673;DHT22;6909;52.202;9.876;2022-12-10T03:45:27;-1.00;99.90
13673;DHT22;6909;52.202;9.876;2022-12-10T03:47:55;-1.10;99.90
13673;DHT22;6909;52.202;9.876;2022-12-10T03:50:21;-1.00;99.90
13673;DHT22;6909;52.202;9.876;2022-12-10T03:52:48;-1.10;99.90
13673;DHT22;6909;52.202;9.876;2022-12-10T03:55:15;-1.10;99.90
13673;DHT22;6909;52.202;9.876;2022-12-10T03:57:41;-1.00;99.90
13673;DHT22;6909;52.202;9.876;2022-12-10T04:00:09;-1.00;99.90
13673;DHT22;6909;52.202;9.876;2022-12-10T04:02:37;-0.90;99.90
13673;DHT22;6909;52.202;9.876;2022-12-10T04:05:07;-1.00;99.90
13673;DHT22;6909;52.202;9.876;2022-12-10T04:07:34;-0.90;99.90
13673;DHT22;6909;52.202;9.876;2022-12-10T04:10:01;-0.90;99.90
13673;DHT22;6909;52.202;9.876;2022-12-10T04:12:28;-0.90;99.90
13673;DHT22;6909;52.202;9.876;2022-12-10T04:14:54;-0.90;99.90
13673;DHT22;6909;52.202;9.876;2022-12-10T04:17:42;-0.90;99.90
13673;DHT22;6909;52.202;9.876;2022-12-10T04:20:10;-0.90;99.90
13673;DHT22;6909;52.202;9.876;2022-12-10T04:22:51;-0.90;99.90
13673;DHT22;6909;52.202;9.876;2022-12-10T04:25:35;-0.90;99.90
13673;DHT22;6909;52.202;9.876;2022-12-10T04:28:19;-0.90;99.90
13673;DHT22;6909;52.202;9.876;2022-12-10T04:30:46;-0.90;99.90
13673;DHT22;6909;52.202;9.876;2022-12-10T04:33:12;-0.90;99.90
13673;DHT22;6909;52.202;9.876;2022-12-10T04:35:43;-0.90;99.90
13673;DHT22;6909;52.202;9.876;2022-12-10T04:38:11;-0.80;99.90
13673;DHT22;6909;52.202;9.876;2022-12-10T04:40:37;-0.90;99.90
13673;DHT22;6909;52.202;9.876;2022-12-10T04:43:04;-1.10;99.90
13673;DHT22;6909;52.202;9.876;2022-12-10T04:45:33;-1.00;99.90
13673;DHT22;6909;52.202;9.876;2022-12-10T04:48:00;-1.00;99.90
13673;DHT22;6909;52.202;9.876;2022-12-10T04:50:27;-1.10;99.90
13673;DHT22;6909;52.202;9.876;2022-12-10T04:52:55;-1.00;99.90
13673;DHT22;6909;52.202;9.876;2022-12-10T04:55:21;-1.00;99.90
13673;DHT22;6909;52.202;9.876;2022-12-10T04:57:48;-1.20;99.90
13673;DHT22;6909;52.202;9.876;2022-12-10T05:00:15;-1.20;99.90
13673;DHT22;6909;52.202;9.876;2022-12-10T05:02:42;-1.20;99.90
13673;DHT22;6909;52.202;9.876;2022-12-10T05:05:08;-1.20;99.90
13673;DHT22;6909;52.202;9.876;2022-12-10T05:07:35;-1.20;99.90
13673;DHT22;6909;52.202;9.876;2022-12-10T05:10:04;-1.20;99.90
13673;DHT22;6909;52.202;9.876;2022-12-10T05:12:31;-1.30;99.90
13673;DHT22;6909;52.202;9.876;2022-12-10T05:14:58;-1.20;99.90
13673;DHT22;6909;52.202;9.876;2022-12-10T05:17:24;-1.20;99.90
13673;DHT22;6909;52.202;9.876;2022-12-10T05:19:51;-1.20;99.90
13673;DHT22;6909;52.202;9.876;2022-12-10T05:22:18;-1.20;99.90
13673;DHT22;6909;52.202;9.876;2022-12-10T05:25:04;-1.20;99.90
13673;DHT22;6909;52.202;9.876;2022-12-10T05:27:32;-1.20;99.90
13673;DHT22;6909;52.202;9.876;2022-12-10T05:29:58;-1.20;99.90
13673;DHT22;6909;52.202;9.876;2022-12-10T05:32:25;-1.20;99.90
13673;DHT22;6909;52.202;9.876;2022-12-10T05:34:52;-1.30;99.90
13673;DHT22;6909;52.202;9.876;2022-12-10T05:37:18;-1.30;99.90
13673;DHT22;6909;52.202;9.876;2022-12-10T05:39:45;-1.30;99.90
13673;DHT22;6909;52.202;9.876;2022-12-10T05:42:15;-1.30;99.90
13673;DHT22;6909;52.202;9.876;2022-12-10T05:44:41;-1.30;99.90
13673;DHT22;6909;52.202;9.876;2022-12-10T05:47:08;-1.30;99.90
13673;DHT22;6909;52.202;9.876;2022-12-10T05:49:35;-1.30;99.90
13673;DHT22;6909;52.202;9.876;2022-12-10T05:52:01;-1.30;99.90
13673;DHT22;6909;52.202;9.876;2022-12-10T05:54:28;-1.30;99.90
13673;DHT22;6909;52.202;9.876;2022-12-10T05:56:55;-1.30;99.90
13673;DHT22;6909;52.202;9.876;2022-12-10T05:59:23;-1.20;99.90
13673;DHT22;6909;52.202;9.876;2022-12-10T06:01:50;-1.20;99.90
13673;DHT22;6909;52.202;9.876;2022-12-10T06:04:16;-1.30;99.90
13673;DHT22;6909;52.202;9.876;2022-12-10T06:06:43;-1.20;99.90
13673;DHT22;6909;52.202;9.876;2022-12-10T06:09:12;-1.30;99.90
13673;DHT22;6909;52.202;9.876;2022-12-10T06:11:39;-1.30;99.90
13673;DHT22;6909;52.202;9.876;2022-12-10T06:14:06;-1.30;99.90
13673;DHT22;6909;52.202;9.876;2022-12-10T06:16:34;-1.30;99.90
13673;DHT22;6909;52.202;9.876;2022-12-10T06:19:01;-1.30;99.90
13673;DHT22;6909;52.202;9.876;2022-12-10T06:21:28;-1.30;99.90
13673;DHT22;6909;52.202;9.876;2022-12-10T06:23:54;-1.30;99.90
13673;DHT22;6909;52.202;9.876;2022-12-10T06:26:23;-1.30;99.90
13673;DHT22;6909;52.202;9.876;2022-12-10T06:28:51;-1.30;99.90
13673;DHT22;6909;52.202;9.876;2022-12-10T06:31:17;-1.30;99.90
13673;DHT22;6909;52.202;9.876;2022-12-10T06:33:46;-1.30;99.90
13673;DHT22;6909;52.202;9.876;2022-12-10T06:36:14;-1.30;99.90
13673;DHT22;6909;52.202;9.876;2022-12-10T06:38:41;-1.40;99.90
13673;DHT22;6909;52.202;9.876;2022-12-10T06:41:11;-1.30;99.90
13673;DHT22;6909;52.202;9.876;2022-12-10T06:43:40;-1.30;99.90
13673;DHT22;6909;52.202;9.876;2022-12-10T06:46:08;-1.30;99.90
13673;DHT22;6909;52.202;9.876;2022-12-10T06:48:35;-1.30;99.90
13673;DHT22;6909;52.202;9.876;2022-12-10T06:51:04;-1.30;99.90
13673;DHT22;6909;52.202;9.876;2022-12-10T06:53:31;-1.30;99.90
13673;DHT22;6909;52.202;9.876;2022-12-10T06:55:58;-1.30;99.90
13673;DHT22;6909;52.202;9.876;2022-12-10T06:58:27;-1.20;99.90
13673;DHT22;6909;52.202;9.876;2022-12-10T07:00:53;-1.20;99.90
13673;DHT22;6909;52.202;9.876;2022-12-10T07:03:20;-1.20;99.90
13673;DHT22;6909;52.202;9.876;2022-12-10T07:05:47;-1.30;99.90
13673;DHT22;6909;52.202;9.876;2022-12-10T07:08:15;-1.10;99.90
13673;DHT22;6909;52.202;9.876;2022-12-10T07:10:43;-1.20;99.90
13673;DHT22;6909;52.202;9.876;2022-12-10T07:13:09;-1.20;99.90
13673;DHT22;6909;52.202;9.876;2022-12-10T07:15:36;-1.20;99.90
13673;DHT22;6909;52.202;9.876;2022-12-10T07:18:03;-1.20;99.90
13673;DHT22;6909;52.202;9.876;2022-12-10T07:20:30;-1.20;99.90
13673;DHT22;6909;52.202;9.876;2022-12-10T07:22:56;-1.20;99.90
13673;DHT22;6909;52.202;9.876;2022-12-10T07:25:25;-1.30;99.90
13673;DHT22;6909;52.202;9.876;2022-12-10T07:27:51;-1.30;99.90
13673;DHT22;6909;52.202;9.876;2022-12-10T07:30:18;-1.30;99.90
13673;DHT22;6909;52.202;9.876;2022-12-10T07:32:45;-1.30;99.90
13673;DHT22;6909;52.202;9.876;2022-12-10T07:35:11;-1.30;99.90
13673;DHT22;6909;52.202;9.876;2022-12-10T07:37:38;-1.30;99.90
13673;DHT22;6909;52.202;9.876;2022-12-10T07:40:05;-1.30;99.90
13673;DHT22;6909;52.202;9.876;2022-12-10T07:42:34;-1.30;99.90
13673;DHT22;6909;52.202;9.876;2022-12-10T07:45:00;-1.30;99.90
13673;DHT22;6909;52.202;9.876;2022-12-10T07:47:27;-1.30;99.90
13673;DHT22;6909;52.202;9.876;2022-12-10T07:49:54;-1.30;99.90
13673;DHT22;6909;52.202;9.876;2022-12-10T07:52:21;-1.40;99.90
13673;DHT22;6909;52.202;9.876;2022-12-10T07:54:47;-1.30;99.90
13673;DHT22;6909;52.202;9.876;2022-12-10T07:57:14;-1.30;99.90
13673;DHT22;6909;52.202;9.876;2022-12-10T07:59:42;-1.30;99.90
13673;DHT22;6909;52.202;9.876;2022-12-10T08:02:09;-1.30;99.90
13673;DHT22;6909;52.202;9.876;2022-12-10T08:04:36;-1.30;99.90
13673;DHT22;6909;52.202;9.876;2022-12-10T08:07:03;-1.30;99.90
13673;DHT22;6909;52.202;9.876;2022-12-10T08:09:30;-1.30;99.90
13673;DHT22;6909;52.202;9.876;2022-12-10T08:11:56;-1.30;99.90
13673;DHT22;6909;52.202;9.876;2022-12-10T08:14:23;-1.30;99.90
13673;DHT22;6909;52.202;9.876;2022-12-10T08:16:51;-1.20;99.90
13673;DHT22;6909;52.202;9.876;2022-12-10T08:19:18;-1.20;99.90
13673;DHT22;6909;52.202;9.876;2022-12-10T08:21:45;-1.20;99.90
13673;DHT22;6909;52.202;9.876;2022-12-10T08:24:11;-1.20;99.90
13673;DHT22;6909;52.202;9.876;2022-12-10T08:26:38;-1.20;99.90
13673;DHT22;6909;52.202;9.876;2022-12-10T08:29:05;-1.30;99.90
13673;DHT22;6909;52.202;9.876;2022-12-10T08:31:31;-1.20;99.90
13673;DHT22;6909;52.202;9.876;2022-12-10T08:33:59;-1.20;99.90
13673;DHT22;6909;52.202;9.876;2022-12-10T08:36:26;-1.20;99.90
13673;DHT22;6909;52.202;9.876;2022-12-10T08:38:53;-1.20;99.90
13673;DHT22;6909;52.202;9.876;2022-12-10T08:41:22;-1.20;99.90
13673;DHT22;6909;52.202;9.876;2022-12-10T08:43:50;-1.20;99.90
13673;DHT22;6909;52.202;9.876;2022-12-10T08:46:17;-1.10;99.90
13673;DHT22;6909;52.202;9.876;2022-12-10T08:48:44;-1.20;99.90
13673;DHT22;6909;52.202;9.876;2022-12-10T08:51:14;-1.10;99.90
13673;DHT22;6909;52.202;9.876;2022-12-10T08:53:41;-1.10;99.90
13673;DHT22;6909;52.202;9.876;2022-12-10T08:56:08;-1.10;99.90
13673;DHT22;6909;52.202;9.876;2022-12-10T08:58:36;-1.20;99.90
13673;DHT22;6909;52.202;9.876;2022-12-10T09:01:06;-1.20;99.90
13673;DHT22;6909;52.202;9.876;2022-12-10T09:03:32;-1.20;99.90
13673;DHT22;6909;52.202;9.876;2022-12-10T09:06:02;-1.10;99.90
13673;DHT22;6909;52.202;9.876;2022-12-10T09:08:30;-1.20;99.90
13673;DHT22;6909;52.202;9.876;2022-12-10T09:10:57;-1.20;99.90
13673;DHT22;6909;52.202;9.876;2022-12-10T09:13:24;-1.20;99.90
13673;DHT22;6909;52.202;9.876;2022-12-10T09:15:51;-1.20;99.90
13673;DHT22;6909;52.202;9.876;2022-12-10T09:18:18;-1.20;99.90
13673;DHT22;6909;52.202;9.876;2022-12-10T09:20:45;-1.20;99.90
13673;DHT22;6909;52.202;9.876;2022-12-10T09:23:12;-1.20;99.90
13673;DHT22;6909;52.202;9.876;2022-12-10T09:25:40;-1.20;99.90
13673;DHT22;6909;52.202;9.876;2022-12-10T09:28:07;-1.20;99.90
13673;DHT22;6909;52.202;9.876;2022-12-10T09:30:33;-1.10;99.90
13673;DHT22;6909;52.202;9.876;2022-12-10T09:33:00;-1.10;99.90
13673;DHT22;6909;52.202;9.876;2022-12-10T09:35:27;-1.00;99.90
13673;DHT22;6909;52.202;9.876;2022-12-10T09:37:54;-0.90;99.90
13673;DHT22;6909;52.202;9.876;2022-12-10T09:40:32;-0.90;99.90
13673;DHT22;6909;52.202;9.876;2022-12-10T09:43:09;-1.00;99.90
13673;DHT22;6909;52.202;9.876;2022-12-10T09:45:46;-1.00;99.90
13673;DHT22;6909;52.202;9.876;2022-12-10T09:48:20;-0.90;99.90
13673;DHT22;6909;52.202;9.876;2022-12-10T09:50:53;-0.90;99.90
13673;DHT22;6909;52.202;9.876;2022-12-10T09:53:24;-0.70;99.90
13673;DHT22;6909;52.202;9.876;2022-12-10T09:55:51;-0.80;99.90
13673;DHT22;6909;52.202;9.876;2022-12-10T09:58:21;-0.70;99.90
13673;DHT22;6909;52.202;9.876;2022-12-10T10:00:51;-0.80;99.90
13673;DHT22;6909;52.202;9.876;2022-12-10T10:03:20;-0.90;99.90
13673;DHT22;6909;52.202;9.876;2022-12-10T10:05:49;-0.80;99.90
13673;DHT22;6909;52.202;9.876;2022-12-10T10:08:23;-0.90;99.90
13673;DHT22;6909;52.202;9.876;2022-12-10T10:10:50;-0.90;99.90
13673;DHT22;6909;52.202;9.876;2022-12-10T10:13:27;-0.90;99.90
13673;DHT22;6909;52.202;9.876;2022-12-10T10:15:58;-1.00;99.90
13673;DHT22;6909;52.202;9.876;2022-12-10T10:18:29;-0.90;99.90
13673;DHT22;6909;52.202;9.876;2022-12-10T10:20:59;-0.90;99.90
13673;DHT22;6909;52.202;9.876;2022-12-10T10:23:26;-1.00;99.90
13673;DHT22;6909;52.202;9.876;2022-12-10T10:25:53;-1.00;99.90
13673;DHT22;6909;52.202;9.876;2022-12-10T10:28:22;-0.90;99.90
13673;DHT22;6909;52.202;9.876;2022-12-10T10:30:51;-1.00;99.90
13673;DHT22;6909;52.202;9.876;2022-12-10T10:33:18;-1.00;99.90
13673;DHT22;6909;52.202;9.876;2022-12-10T10:35:48;-1.00;99.90
13673;DHT22;6909;52.202;9.876;2022-12-10T10:38:18;-1.00;99.90
13673;DHT22;6909;52.202;9.876;2022-12-10T10:40:50;-1.00;99.90
13673;DHT22;6909;52.202;9.876;2022-12-10T10:43:22;-0.90;99.90
13673;DHT22;6909;52.202;9.876;2022-12-10T10:45:52;-0.90;99.90
13673;DHT22;6909;52.202;9.876;2022-12-10T10:48:21;-0.90;99.90
13673;DHT22;6909;52.202;9.876;2022-12-10T10:50:50;-1.00;99.90
13673;DHT22;6909;52.202;9.876;2022-12-10T10:53:27;-1.00;99.90
13673;DHT22;6909;52.202;9.876;2022-12-10T10:55:56;-0.90;99.90
13673;DHT22;6909;52.202;9.876;2022-12-10T10:58:25;-0.90;99.90
13673;DHT22;6909;52.202;9.876;2022-12-10T11:00:55;-0.90;99.90
13673;DHT22;6909;52.202;9.876;2022-12-10T11:03:22;-0.90;99.90
13673;DHT22;6909;52.202;9.876;2022-12-10T11:05:48;-1.00;99.90
13673;DHT22;6909;52.202;9.876;2022-12-10T11:08:17;-0.80;99.90
13673;DHT22;6909;52.202;9.876;2022-12-10T11:10:47;-0.90;99.90
13673;DHT22;6909;52.202;9.876;2022-12-10T11:13:22;-0.90;99.90
13673;DHT22;6909;52.202;9.876;2022-12-10T11:15:58;-0.90;99.90
13673;DHT22;6909;52.202;9.876;2022-12-10T11:18:29;-0.90;99.90
13673;DHT22;6909;52.202;9.876;2022-12-10T11:20:59;-0.90;99.90
13673;DHT22;6909;52.202;9.876;2022-12-10T11:23:28;-0.90;99.90
13673;DHT22;6909;52.202;9.876;2022-12-10T11:26:01;-0.90;99.90
13673;DHT22;6909;52.202;9.876;2022-12-10T11:28:40;-0.70;99.90
13673;DHT22;6909;52.202;9.876;2022-12-10T11:31:22;-0.70;99.90
13673;DHT22;6909;52.202;9.876;2022-12-10T11:33:58;-0.70;99.90
13673;DHT22;6909;52.202;9.876;2022-12-10T11:36:33;-0.70;99.90
13673;DHT22;6909;52.202;9.876;2022-12-10T11:39:10;-0.60;99.90
13673;DHT22;6909;52.202;9.876;2022-12-10T11:41:47;-0.60;99.90
13673;DHT22;6909;52.202;9.876;2022-12-10T11:44:22;-0.60;99.90
13673;DHT22;6909;52.202;9.876;2022-12-10T11:47:19;-0.60;99.90
13673;DHT22;6909;52.202;9.876;2022-12-10T11:50:00;-0.50;99.90
13673;DHT22;6909;52.202;9.876;2022-12-10T11:52:38;-0.60;99.90
13673;DHT22;6909;52.202;9.876;2022-12-10T11:55:16;-0.50;99.90
13673;DHT22;6909;52.202;9.876;2022-12-10T11:57:47;-0.60;99.90
13673;DHT22;6909;52.202;9.876;2022-12-10T12:00:19;-0.50;99.90
13673;DHT22;6909;52.202;9.876;2022-12-10T12:03:15;-0.60;99.90
13673;DHT22;6909;52.202;9.876;2022-12-10T12:05:54;-0.50;99.90
13673;DHT22;6909;52.202;9.876;2022-12-10T12:08:29;-0.50;99.90
13673;DHT22;6909;52.202;9.876;2022-12-10T12:11:05;-0.60;99.90
13673;DHT22;6909;52.202;9.876;2022-12-10T12:13:39;-0.70;99.90
13673;DHT22;6909;52.202;9.876;2022-12-10T12:16:12;-0.80;99.90
13673;DHT22;6909;52.202;9.876;2022-12-10T12:18:43;-0.70;99.90
13673;DHT22;6909;52.202;9.876;2022-12-10T12:21:14;-0.70;99.90
13673;DHT22;6909;52.202;9.876;2022-12-10T12:23:47;-0.70;99.90
13673;DHT22;6909;52.202;9.876;2022-12-10T12:26:21;-0.70;99.90
13673;DHT22;6909;52.202;9.876;2022-12-10T12:28:53;-0.80;99.90
13673;DHT22;6909;52.202;9.876;2022-12-10T12:31:25;-0.90;99.90
13673;DHT22;6909;52.202;9.876;2022-12-10T12:34:01;-0.80;99.90
13673;DHT22;6909;52.202;9.876;2022-12-10T12:36:30;-0.80;99.90
13673;DHT22;6909;52.202;9.876;2022-12-10T12:39:02;-0.80;99.90
13673;DHT22;6909;52.202;9.876;2022-12-10T12:41:36;-0.80;99.90
13673;DHT22;6909;52.202;9.876;2022-12-10T12:44:12;-0.80;99.90
13673;DHT22;6909;52.202;9.876;2022-12-10T12:46:43;-0.80;99.90
13673;DHT22;6909;52.202;9.876;2022-12-10T12:49:16;-0.70;99.90
13673;DHT22;6909;52.202;9.876;2022-12-10T12:51:49;-0.70;99.90
13673;DHT22;6909;52.202;9.876;2022-12-10T12:54:17;-0.70;99.90
13673;DHT22;6909;52.202;9.876;2022-12-10T12:57:06;-0.80;99.90
13673;DHT22;6909;52.202;9.876;2022-12-10T12:59:47;-0.80;99.90
13673;DHT22;6909;52.202;9.876;2022-12-10T13:02:38;-0.80;99.90
13673;DHT22;6909;52.202;9.876;2022-12-10T13:05:15;-0.90;99.90
13673;DHT22;6909;52.202;9.876;2022-12-10T13:07:42;-0.90;99.90
13673;DHT22;6909;52.202;9.876;2022-12-10T13:10:22;-0.90;99.90
13673;DHT22;6909;52.202;9.876;2022-12-10T13:12:52;-0.90;99.90
13673;DHT22;6909;52.202;9.876;2022-12-10T13:15:34;-0.90;99.90
13673;DHT22;6909;52.202;9.876;2022-12-10T13:18:06;-0.90;99.90
13673;DHT22;6909;52.202;9.876;2022-12-10T13:20:47;-0.90;99.90
13673;DHT22;6909;52.202;9.876;2022-12-10T13:23:30;-0.80;99.90
13673;DHT22;6909;52.202;9.876;2022-12-10T13:26:01;-0.80;99.90
13673;DHT22;6909;52.202;9.876;2022-12-10T13:28:37;-0.90;99.90
13673;DHT22;6909;52.202;9.876;2022-12-10T13:31:33;-0.90;99.90
13673;DHT22;6909;52.202;9.876;2022-12-10T13:34:19;-0.80;99.90
13673;DHT22;6909;52.202;9.876;2022-12-10T13:37:05;-0.80;99.90
13673;DHT22;6909;52.202;9.876;2022-12-10T13:39:33;-0.80;99.90
13673;DHT22;6909;52.202;9.876;2022-12-10T13:42:25;-0.90;99.90
13673;DHT22;6909;52.202;9.876;2022-12-10T13:45:28;-0.90;99.90
13673;DHT22;6909;52.202;9.876;2022-12-10T13:48:23;-0.90;99.90
13673;DHT22;6909;52.202;9.876;2022-12-10T13:51:00;-0.90;99.90
13673;DHT22;6909;52.202;9.876;2022-12-10T13:53:36;-0.90;99.90
13673;DHT22;6909;52.202;9.876;2022-12-10T13:56:10;-1.00;99.90
13673;DHT22;6909;52.202;9.876;2022-12-10T13:58:49;-0.90;99.90
13673;DHT22;6909;52.202;9.876;2022-12-10T14:01:25;-0.90;99.90
13673;DHT22;6909;52.202;9.876;2022-12-10T14:04:14;-0.90;99.90
13673;DHT22;6909;52.202;9.876;2022-12-10T14:06:44;-0.90;99.90
13673;DHT22;6909;52.202;9.876;2022-12-10T14:09:18;-0.90;99.90
13673;DHT22;6909;52.202;9.876;2022-12-10T14:11:48;-0.90;99.90
13673;DHT22;6909;52.202;9.876;2022-12-10T14:14:24;-0.90;99.90
13673;DHT22;6909;52.202;9.876;2022-12-10T14:16:51;-0.90;99.90
13673;DHT22;6909;52.202;9.876;2022-12-10T14:19:19;-0.90;99.90
13673;DHT22;6909;52.202;9.876;2022-12-10T14:21:46;-0.90;99.90
13673;DHT22;6909;52.202;9.876;2022-12-10T14:24:30;-0.90;99.90
13673;DHT22;6909;52.202;9.876;2022-12-10T14:26:59;-0.90;99.90
13673;DHT22;6909;52.202;9.876;2022-12-10T14:29:27;-0.90;99.90
13673;DHT22;6909;52.202;9.876;2022-12-10T14:31:53;-0.90;99.90
13673;DHT22;6909;52.202;9.876;2022-12-10T14:34:26;-0.90;99.90
13673;DHT22;6909;52.202;9.876;2022-12-10T14:36:55;-0.90;99.90
13673;DHT22;6909;52.202;9.876;2022-12-10T14:39:26;-0.80;99.90
13673;DHT22;6909;52.202;9.876;2022-12-10T14:41:57;-0.80;99.90
13673;DHT22;6909;52.202;9.876;2022-12-10T14:44:24;-0.80;99.90
13673;DHT22;6909;52.202;9.876;2022-12-10T14:47:03;-0.80;99.90
13673;DHT22;6909;52.202;9.876;2022-12-10T14:49:30;-0.90;99.90
13673;DHT22;6909;52.202;9.876;2022-12-10T14:51:57;-0.80;99.90
13673;DHT22;6909;52.202;9.876;2022-12-10T14:54:26;-0.80;99.90
13673;DHT22;6909;52.202;9.876;2022-12-10T14:56:55;-0.80;99.90
13673;DHT22;6909;52.202;9.876;2022-12-10T14:59:26;-0.80;99.90
13673;DHT22;6909;52.202;9.876;2022-12-10T15:01:57;-0.80;99.90
13673;DHT22;6909;52.202;9.876;2022-12-10T15:04:29;-0.80;99.90
13673;DHT22;6909;52.202;9.876;2022-12-10T15:06:58;-0.80;99.90
13673;DHT22;6909;52.202;9.876;2022-12-10T15:09:26;-0.90;99.90
13673;DHT22;6909;52.202;9.876;2022-12-10T15:11:56;-0.80;99.90
13673;DHT22;6909;52.202;9.876;2022-12-10T15:14:24;-0.80;99.90
13673;DHT22;6909;52.202;9.876;2022-12-10T15:16:55;-0.80;99.90
13673;DHT22;6909;52.202;9.876;2022-12-10T15:19:24;-0.80;99.90
13673;DHT22;6909;52.202;9.876;2022-12-10T15:21:58;-0.80;99.90
13673;DHT22;6909;52.202;9.876;2022-12-10T15:24:32;-0.80;99.90
13673;DHT22;6909;52.202;9.876;2022-12-10T15:27:15;-0.80;99.90
13673;DHT22;6909;52.202;9.876;2022-12-10T15:29:42;-0.80;99.90
13673;DHT22;6909;52.202;9.876;2022-12-10T15:32:12;-0.80;99.90
13673;DHT22;6909;52.202;9.876;2022-12-10T15:34:45;-0.80;99.90
13673;DHT22;6909;52.202;9.876;2022-12-10T15:37:20;-0.70;99.90
13673;DHT22;6909;52.202;9.876;2022-12-10T15:40:00;-0.70;99.90
13673;DHT22;6909;52.202;9.876;2022-12-10T15:42:39;-0.70;99.90
13673;DHT22;6909;52.202;9.876;2022-12-10T15:45:19;-0.70;99.90
13673;DHT22;6909;52.202;9.876;2022-12-10T15:47:47;-0.70;99.90
13673;DHT22;6909;52.202;9.876;2022-12-10T15:50:14;-0.70;99.90
13673;DHT22;6909;52.202;9.876;2022-12-10T15:52:41;-0.70;99.90
13673;DHT22;6909;52.202;9.876;2022-12-10T15:55:11;-0.80;99.90
13673;DHT22;6909;52.202;9.876;2022-12-10T15:57:40;-0.80;99.90
13673;DHT22;6909;52.202;9.876;2022-12-10T16:00:16;-0.80;99.90
13673;DHT22;6909;52.202;9.876;2022-12-10T16:02:46;-0.80;99.90
13673;DHT22;6909;52.202;9.876;2022-12-10T16:05:16;-0.80;99.90
13673;DHT22;6909;52.202;9.876;2022-12-10T16:07:44;-0.80;99.90
13673;DHT22;6909;52.202;9.876;2022-12-10T16:10:12;-0.80;99.90